KAL752 RJTT-RKSI
Flight info
| Callsign | KAL752 |
|---|---|
| Flight time | 1h 56m |
| Altitude | 40000 |
| Route | BEKLA Y18 PIGAP Y182 BIDIK Y16 SAPRA Y685 GUKDO GUKDO2H |
| Aircraft | A359/H-SDE2E3GHIJ1J3J4J5LM1ORWXY/LB1D1 |
Departure
| Time | 2026-05-06 13:58 |
|---|---|
| Airport | Tokyo Haneda International Airport (RJTT) |
Arrival
| Time | 2026-05-06 15:55 |
|---|---|
| Airport | Incheon International Airport (RKSI) |
| Time | Latitude | Longitude | Altitude | Speed | Heading |
|---|---|---|---|---|---|
| 2026-05-06 13:42 | 35.54947 | 139.76677 | 27 ft | 0 kts | 62° |
| 2026-05-06 13:43 | 35.54947 | 139.76676 | 27 ft | 5 kts | 62° |
| 2026-05-06 13:43 | 35.54921 | 139.76618 | 28 ft | 8 kts | 60° |
| 2026-05-06 13:44 | 35.54910 | 139.76594 | 28 ft | 0 kts | 59° |
| 2026-05-06 13:45 | 35.54953 | 139.76627 | 28 ft | 16 kts | 7° |
| 2026-05-06 13:45 | 35.55067 | 139.76599 | 29 ft | 18 kts | 4° |
| 2026-05-06 13:46 | 35.55148 | 139.76703 | 29 ft | 18 kts | 60° |
| 2026-05-06 13:46 | 35.55217 | 139.76847 | 29 ft | 21 kts | 59° |
| 2026-05-06 13:46 | 35.55294 | 139.77010 | 29 ft | 22 kts | 60° |
| 2026-05-06 13:46 | 35.55284 | 139.77154 | 29 ft | 18 kts | 135° |
| 2026-05-06 13:47 | 35.55176 | 139.77236 | 29 ft | 19 kts | 149° |
| 2026-05-06 13:47 | 35.55055 | 139.77322 | 29 ft | 21 kts | 150° |
| 2026-05-06 13:47 | 35.54920 | 139.77416 | 29 ft | 23 kts | 150° |
| 2026-05-06 13:47 | 35.54776 | 139.77518 | 29 ft | 25 kts | 150° |
| 2026-05-06 13:48 | 35.54622 | 139.77628 | 29 ft | 26 kts | 150° |
| 2026-05-06 13:48 | 35.54477 | 139.77730 | 29 ft | 24 kts | 150° |
| 2026-05-06 13:48 | 35.54324 | 139.77838 | 29 ft | 26 kts | 150° |
| 2026-05-06 13:48 | 35.54184 | 139.77939 | 29 ft | 16 kts | 150° |
| 2026-05-06 13:49 | 35.54089 | 139.78016 | 29 ft | 17 kts | 131° |
| 2026-05-06 13:49 | 35.54088 | 139.78123 | 28 ft | 0 kts | 59° |
| 2026-05-06 13:49 | 35.54087 | 139.78123 | 28 ft | 0 kts | 59° |
| 2026-05-06 13:50 | 35.54088 | 139.78124 | 28 ft | 1 kts | 59° |
| 2026-05-06 13:50 | 35.54131 | 139.78212 | 31 ft | 16 kts | 59° |
| 2026-05-06 13:50 | 35.54191 | 139.78340 | 29 ft | 20 kts | 60° |
| 2026-05-06 13:51 | 35.54265 | 139.78495 | 31 ft | 22 kts | 60° |
| 2026-05-06 13:51 | 35.54345 | 139.78663 | 31 ft | 24 kts | 58° |
| 2026-05-06 13:51 | 35.54429 | 139.78839 | 31 ft | 23 kts | 59° |
| 2026-05-06 13:51 | 35.54516 | 139.79019 | 31 ft | 26 kts | 59° |
| 2026-05-06 13:52 | 35.54593 | 139.79186 | 30 ft | 11 kts | 61° |
| 2026-05-06 13:52 | 35.54638 | 139.79281 | 30 ft | 14 kts | 58° |
| 2026-05-06 13:52 | 35.54691 | 139.79390 | 30 ft | 15 kts | 61° |
| 2026-05-06 13:52 | 35.54726 | 139.79466 | 30 ft | 6 kts | 59° |
| 2026-05-06 13:53 | 35.54728 | 139.79469 | 30 ft | 0 kts | 59° |
| 2026-05-06 13:53 | 35.54758 | 139.79532 | 30 ft | 16 kts | 59° |
| 2026-05-06 13:53 | 35.54783 | 139.79663 | 30 ft | 14 kts | 113° |
| 2026-05-06 13:54 | 35.54707 | 139.79736 | 30 ft | 15 kts | 149° |
| 2026-05-06 13:54 | 35.54609 | 139.79805 | 30 ft | 17 kts | 150° |
| 2026-05-06 13:54 | 35.54498 | 139.79883 | 30 ft | 20 kts | 150° |
| 2026-05-06 13:54 | 35.54375 | 139.79971 | 30 ft | 21 kts | 148° |
| 2026-05-06 13:55 | 35.54244 | 139.80064 | 30 ft | 22 kts | 149° |
| 2026-05-06 13:55 | 35.54216 | 139.80202 | 28 ft | 6 kts | 58° |
| 2026-05-06 13:55 | 35.54217 | 139.80203 | 28 ft | 0 kts | 58° |
| 2026-05-06 13:56 | 35.54216 | 139.80203 | 28 ft | 0 kts | 58° |
| 2026-05-06 13:57 | 35.54249 | 139.80266 | 30 ft | 14 kts | 58° |
| 2026-05-06 13:57 | 35.54260 | 139.80281 | 30 ft | 3 kts | 42° |
| 2026-05-06 13:57 | 35.54300 | 139.80278 | 30 ft | 11 kts | 331° |
| 2026-05-06 13:58 | 35.54599 | 139.80065 | 30 ft | 90 kts | 329° |
| 2026-05-06 13:58 | 35.55357 | 139.79527 | 31 ft | 159 kts | 329° |
| 2026-05-06 13:58 | 35.56415 | 139.78755 | 497 ft | 182 kts | 329° |
| 2026-05-06 13:58 | 35.57617 | 139.78280 | 1242 ft | 190 kts | 11° |
| 2026-05-06 13:59 | 35.58758 | 139.79201 | 1687 ft | 213 kts | 55° |
| 2026-05-06 13:59 | 35.59616 | 139.80826 | 2038 ft | 243 kts | 60° |
| 2026-05-06 13:59 | 35.60604 | 139.82650 | 2554 ft | 265 kts | 62° |
| 2026-05-06 13:59 | 35.61142 | 139.84800 | 3365 ft | 266 kts | 90° |
| 2026-05-06 14:00 | 35.61123 | 139.87091 | 4213 ft | 271 kts | 96° |
| 2026-05-06 14:00 | 35.61042 | 139.89433 | 5063 ft | 278 kts | 95° |
| 2026-05-06 14:00 | 35.61071 | 139.91837 | 5899 ft | 287 kts | 84° |
| 2026-05-06 14:00 | 35.61794 | 139.94148 | 6752 ft | 296 kts | 54° |
| 2026-05-06 14:01 | 35.63350 | 139.95780 | 7652 ft | 298 kts | 22° |
| 2026-05-06 14:01 | 35.65343 | 139.96351 | 8623 ft | 294 kts | 0° |
| 2026-05-06 14:01 | 35.67394 | 139.96501 | 9592 ft | 298 kts | 357° |
| 2026-05-06 14:01 | 35.69487 | 139.96558 | 10435 ft | 305 kts | 352° |
| 2026-05-06 14:02 | 35.71585 | 139.95988 | 10859 ft | 317 kts | 330° |
| 2026-05-06 14:02 | 35.73364 | 139.94355 | 11290 ft | 324 kts | 306° |
| 2026-05-06 14:02 | 35.74426 | 139.91920 | 11963 ft | 325 kts | 283° |
| 2026-05-06 14:02 | 35.74681 | 139.89193 | 12726 ft | 328 kts | 270° |
| 2026-05-06 14:03 | 35.74898 | 139.86363 | 13507 ft | 336 kts | 275° |
| 2026-05-06 14:03 | 35.75216 | 139.83485 | 14258 ft | 342 kts | 276° |
| 2026-05-06 14:03 | 35.75555 | 139.80579 | 15001 ft | 346 kts | 276° |
| 2026-05-06 14:03 | 35.75903 | 139.77632 | 15789 ft | 348 kts | 276° |
| 2026-05-06 14:04 | 35.76254 | 139.74666 | 16587 ft | 352 kts | 276° |
| 2026-05-06 14:04 | 35.76754 | 139.71697 | 17379 ft | 357 kts | 283° |
| 2026-05-06 14:04 | 35.77463 | 139.68750 | 18168 ft | 361 kts | 284° |
| 2026-05-06 14:04 | 35.78211 | 139.65786 | 18892 ft | 364 kts | 284° |
| 2026-05-06 14:05 | 35.78964 | 139.62801 | 19576 ft | 366 kts | 283° |
| 2026-05-06 14:05 | 35.79714 | 139.59812 | 20016 ft | 365 kts | 284° |
| 2026-05-06 14:05 | 35.80461 | 139.56825 | 20150 ft | 364 kts | 284° |
| 2026-05-06 14:05 | 35.81206 | 139.53839 | 20165 ft | 364 kts | 284° |
| 2026-05-06 14:06 | 35.81948 | 139.50857 | 20176 ft | 365 kts | 283° |
| 2026-05-06 14:06 | 35.82627 | 139.47855 | 20172 ft | 363 kts | 279° |
| 2026-05-06 14:06 | 35.82895 | 139.44783 | 20177 ft | 360 kts | 270° |
| 2026-05-06 14:06 | 35.82955 | 139.41701 | 20176 ft | 360 kts | 269° |
| 2026-05-06 14:07 | 35.82994 | 139.38619 | 20172 ft | 360 kts | 269° |
| 2026-05-06 14:07 | 35.83020 | 139.36582 | 20170 ft | 360 kts | 269° |
| 2026-05-06 14:07 | 35.83077 | 139.32459 | 20203 ft | 361 kts | 269° |
| 2026-05-06 14:07 | 35.83106 | 139.30407 | 20414 ft | 362 kts | 269° |
| 2026-05-06 14:08 | 35.83151 | 139.27302 | 21147 ft | 361 kts | 269° |
| 2026-05-06 14:08 | 35.83196 | 139.24231 | 22145 ft | 356 kts | 268° |
| 2026-05-06 14:08 | 35.83239 | 139.21184 | 22992 ft | 358 kts | 269° |
| 2026-05-06 14:08 | 35.83281 | 139.18085 | 23542 ft | 364 kts | 269° |
| 2026-05-06 14:09 | 35.83311 | 139.14956 | 24191 ft | 365 kts | 267° |
| 2026-05-06 14:09 | 35.83222 | 139.11847 | 24910 ft | 364 kts | 264° |
| 2026-05-06 14:09 | 35.83048 | 139.08719 | 25519 ft | 366 kts | 263° |
| 2026-05-06 14:09 | 35.82847 | 139.05593 | 26197 ft | 366 kts | 263° |
| 2026-05-06 14:10 | 35.82652 | 139.02471 | 26826 ft | 367 kts | 263° |
| 2026-05-06 14:10 | 35.82467 | 138.99323 | 27366 ft | 370 kts | 263° |
| 2026-05-06 14:10 | 35.82294 | 138.96155 | 27988 ft | 372 kts | 263° |
| 2026-05-06 14:10 | 35.82130 | 138.92971 | 28611 ft | 373 kts | 263° |
| 2026-05-06 14:11 | 35.81966 | 138.89774 | 29190 ft | 374 kts | 262° |
| 2026-05-06 14:11 | 35.81802 | 138.86564 | 29763 ft | 376 kts | 262° |
| 2026-05-06 14:11 | 35.81640 | 138.83328 | 30235 ft | 380 kts | 262° |
| 2026-05-06 14:11 | 35.81475 | 138.80066 | 30684 ft | 383 kts | 262° |
| 2026-05-06 14:12 | 35.81306 | 138.76778 | 31053 ft | 386 kts | 262° |
| 2026-05-06 14:12 | 35.81137 | 138.73464 | 31523 ft | 389 kts | 262° |
| 2026-05-06 14:12 | 35.80967 | 138.70136 | 32084 ft | 389 kts | 262° |
| 2026-05-06 14:12 | 35.80801 | 138.66856 | 32582 ft | 390 kts | 262° |
| 2026-05-06 14:13 | 35.80625 | 138.63510 | 32993 ft | 392 kts | 262° |
| 2026-05-06 14:13 | 35.80445 | 138.60140 | 33329 ft | 396 kts | 262° |
| 2026-05-06 14:13 | 35.80266 | 138.56753 | 33714 ft | 398 kts | 262° |
| 2026-05-06 14:13 | 35.80086 | 138.53338 | 34094 ft | 400 kts | 262° |
| 2026-05-06 14:14 | 35.79904 | 138.49913 | 34416 ft | 402 kts | 262° |
| 2026-05-06 14:14 | 35.79721 | 138.46471 | 34732 ft | 404 kts | 262° |
| 2026-05-06 14:14 | 35.79537 | 138.43025 | 35185 ft | 402 kts | 262° |
| 2026-05-06 14:14 | 35.79353 | 138.39604 | 35641 ft | 399 kts | 262° |
| 2026-05-06 14:15 | 35.79202 | 138.36202 | 36059 ft | 399 kts | 264° |
| 2026-05-06 14:15 | 35.79303 | 138.32774 | 36446 ft | 402 kts | 269° |
| 2026-05-06 14:15 | 35.79736 | 138.29357 | 36824 ft | 407 kts | 275° |
| 2026-05-06 14:15 | 35.80488 | 138.25981 | 37271 ft | 409 kts | 278° |
| 2026-05-06 14:16 | 35.81347 | 138.22660 | 37700 ft | 405 kts | 279° |
| 2026-05-06 14:16 | 35.82240 | 138.19365 | 37896 ft | 407 kts | 279° |
| 2026-05-06 14:16 | 35.84067 | 138.12722 | 38251 ft | 409 kts | 280° |
| 2026-05-06 14:17 | 35.84979 | 138.09410 | 38653 ft | 407 kts | 279° |
| 2026-05-06 14:17 | 35.85884 | 138.06108 | 38977 ft | 405 kts | 279° |
| 2026-05-06 14:17 | 35.86782 | 138.02816 | 39239 ft | 405 kts | 280° |
| 2026-05-06 14:17 | 35.87675 | 137.99521 | 39431 ft | 406 kts | 280° |
| 2026-05-06 14:18 | 35.88569 | 137.96204 | 39604 ft | 407 kts | 280° |
| 2026-05-06 14:18 | 35.89460 | 137.92895 | 39829 ft | 407 kts | 280° |
| 2026-05-06 14:18 | 35.90352 | 137.89578 | 39997 ft | 408 kts | 281° |
| 2026-05-06 14:18 | 35.91243 | 137.86251 | 40116 ft | 409 kts | 280° |
| 2026-05-06 14:19 | 35.93034 | 137.79568 | 40151 ft | 410 kts | 280° |
| 2026-05-06 14:19 | 35.94830 | 137.72880 | 40165 ft | 411 kts | 281° |
| 2026-05-06 14:20 | 35.96620 | 137.66195 | 40168 ft | 409 kts | 280° |
| 2026-05-06 14:20 | 35.98400 | 137.59526 | 40171 ft | 409 kts | 280° |
| 2026-05-06 14:21 | 36.00163 | 137.52850 | 40161 ft | 409 kts | 279° |
| 2026-05-06 14:21 | 36.01191 | 137.46057 | 40164 ft | 398 kts | 268° |
| 2026-05-06 14:22 | 36.01330 | 137.39242 | 40158 ft | 396 kts | 265° |
| 2026-05-06 14:22 | 36.01315 | 137.32456 | 40161 ft | 396 kts | 265° |
| 2026-05-06 14:23 | 36.01281 | 137.25652 | 40163 ft | 396 kts | 265° |
| 2026-05-06 14:23 | 36.01257 | 137.18836 | 40145 ft | 396 kts | 265° |
| 2026-05-06 14:24 | 36.01241 | 137.12027 | 40153 ft | 397 kts | 265° |
| 2026-05-06 14:24 | 36.01222 | 137.05218 | 40140 ft | 396 kts | 265° |
| 2026-05-06 14:25 | 36.01197 | 136.98404 | 40150 ft | 399 kts | 266° |
| 2026-05-06 14:25 | 36.01167 | 136.91502 | 40142 ft | 403 kts | 266° |
| 2026-05-06 14:26 | 36.01135 | 136.84611 | 40136 ft | 404 kts | 266° |
| 2026-05-06 14:26 | 36.01101 | 136.77669 | 40134 ft | 404 kts | 266° |
| 2026-05-06 14:27 | 36.01062 | 136.70709 | 40140 ft | 407 kts | 266° |
| 2026-05-06 14:27 | 36.01016 | 136.63726 | 40120 ft | 407 kts | 266° |
| 2026-05-06 14:28 | 36.00965 | 136.56718 | 40121 ft | 411 kts | 267° |
| 2026-05-06 14:28 | 36.00909 | 136.49567 | 40113 ft | 420 kts | 267° |
| 2026-05-06 14:29 | 36.00850 | 136.42336 | 40119 ft | 421 kts | 267° |
| 2026-05-06 14:29 | 36.00789 | 136.35096 | 40112 ft | 422 kts | 267° |
| 2026-05-06 14:30 | 36.00722 | 136.27854 | 40111 ft | 422 kts | 267° |
| 2026-05-06 14:30 | 36.00648 | 136.20616 | 40106 ft | 422 kts | 267° |
| 2026-05-06 14:31 | 36.00571 | 136.13376 | 40094 ft | 422 kts | 267° |
| 2026-05-06 14:31 | 36.00488 | 136.06082 | 40087 ft | 427 kts | 267° |
| 2026-05-06 14:32 | 36.00401 | 135.98747 | 40106 ft | 428 kts | 267° |
| 2026-05-06 14:32 | 36.00310 | 135.91452 | 40095 ft | 428 kts | 267° |
| 2026-05-06 14:33 | 36.00215 | 135.84109 | 40099 ft | 428 kts | 267° |
| 2026-05-06 14:33 | 36.00114 | 135.76759 | 40076 ft | 429 kts | 268° |
| 2026-05-06 14:34 | 36.00007 | 135.69334 | 40098 ft | 435 kts | 268° |
| 2026-05-06 14:34 | 35.99896 | 135.61863 | 40096 ft | 436 kts | 268° |
| 2026-05-06 14:35 | 35.99780 | 135.54384 | 40098 ft | 436 kts | 268° |
| 2026-05-06 14:35 | 35.99660 | 135.46902 | 40093 ft | 436 kts | 268° |
| 2026-05-06 14:36 | 35.99534 | 135.39431 | 40080 ft | 436 kts | 268° |
| 2026-05-06 14:36 | 35.99403 | 135.31916 | 40091 ft | 439 kts | 269° |
| 2026-05-06 14:37 | 35.99267 | 135.24368 | 40094 ft | 440 kts | 269° |
| 2026-05-06 14:37 | 35.99127 | 135.16812 | 40096 ft | 440 kts | 269° |
| 2026-05-06 14:38 | 35.98981 | 135.09257 | 40094 ft | 440 kts | 269° |
| 2026-05-06 14:38 | 35.98831 | 135.01698 | 40081 ft | 440 kts | 268° |
| 2026-05-06 14:39 | 35.98675 | 134.94133 | 40095 ft | 442 kts | 269° |
| 2026-05-06 14:39 | 35.98514 | 134.86505 | 40093 ft | 446 kts | 269° |
| 2026-05-06 14:40 | 35.98347 | 134.78851 | 40090 ft | 446 kts | 269° |
| 2026-05-06 14:40 | 35.98179 | 134.71193 | 40085 ft | 446 kts | 269° |
| 2026-05-06 14:41 | 35.98000 | 134.63529 | 40079 ft | 446 kts | 269° |
| 2026-05-06 14:41 | 35.97815 | 134.55860 | 40079 ft | 448 kts | 269° |
| 2026-05-06 14:42 | 35.97626 | 134.48151 | 40087 ft | 450 kts | 269° |
| 2026-05-06 14:42 | 35.97432 | 134.40426 | 40081 ft | 450 kts | 269° |
| 2026-05-06 14:43 | 35.97233 | 134.32696 | 40083 ft | 450 kts | 269° |
| 2026-05-06 14:43 | 35.97029 | 134.24972 | 40079 ft | 451 kts | 269° |
| 2026-05-06 14:44 | 35.96820 | 134.17227 | 40078 ft | 452 kts | 269° |
| 2026-05-06 14:45 | 35.96496 | 134.05589 | 40077 ft | 453 kts | 269° |
| 2026-05-06 14:45 | 35.96274 | 133.97811 | 40075 ft | 454 kts | 269° |
| 2026-05-06 14:46 | 35.96043 | 133.90028 | 40076 ft | 454 kts | 269° |
| 2026-05-06 14:46 | 35.95809 | 133.82247 | 40078 ft | 454 kts | 269° |
| 2026-05-06 14:47 | 35.95571 | 133.74468 | 40082 ft | 454 kts | 269° |
| 2026-05-06 14:47 | 35.95329 | 133.66741 | 40078 ft | 453 kts | 269° |
| 2026-05-06 14:48 | 35.95081 | 133.58975 | 40077 ft | 453 kts | 269° |
| 2026-05-06 14:48 | 35.94827 | 133.51203 | 40068 ft | 453 kts | 269° |
| 2026-05-06 14:49 | 35.94567 | 133.43424 | 40074 ft | 454 kts | 269° |
| 2026-05-06 14:49 | 35.94303 | 133.35648 | 40074 ft | 454 kts | 269° |
| 2026-05-06 14:50 | 35.94034 | 133.27872 | 40072 ft | 453 kts | 269° |
| 2026-05-06 14:50 | 35.93760 | 133.20100 | 40074 ft | 453 kts | 269° |
| 2026-05-06 14:51 | 35.93482 | 133.12345 | 40056 ft | 452 kts | 269° |
| 2026-05-06 14:51 | 35.93198 | 133.04575 | 40072 ft | 454 kts | 268° |
| 2026-05-06 14:52 | 35.92908 | 132.96800 | 40069 ft | 454 kts | 268° |
| 2026-05-06 14:52 | 35.92614 | 132.89030 | 40069 ft | 453 kts | 268° |
| 2026-05-06 14:53 | 35.92366 | 132.82587 | 40069 ft | 453 kts | 268° |
| 2026-05-06 14:53 | 35.92063 | 132.74822 | 40055 ft | 453 kts | 268° |
| 2026-05-06 14:54 | 35.91755 | 132.67044 | 40069 ft | 455 kts | 268° |
| 2026-05-06 14:54 | 35.91389 | 132.57988 | 40073 ft | 455 kts | 268° |
| 2026-05-06 14:55 | 35.91122 | 132.51472 | 40068 ft | 454 kts | 268° |
| 2026-05-06 14:55 | 35.90745 | 132.42444 | 40067 ft | 453 kts | 268° |
| 2026-05-06 14:56 | 35.90470 | 132.35940 | 40057 ft | 453 kts | 268° |
| 2026-05-06 14:56 | 35.90137 | 132.28176 | 40067 ft | 454 kts | 268° |
| 2026-05-06 14:57 | 35.89801 | 132.20460 | 40065 ft | 454 kts | 268° |
| 2026-05-06 14:57 | 35.89457 | 132.12694 | 40061 ft | 453 kts | 268° |
| 2026-05-06 14:58 | 35.89109 | 132.04933 | 40062 ft | 453 kts | 268° |
| 2026-05-06 14:58 | 35.88756 | 131.97176 | 40051 ft | 453 kts | 268° |
| 2026-05-06 14:59 | 35.88398 | 131.89420 | 40058 ft | 454 kts | 268° |
| 2026-05-06 14:59 | 35.88034 | 131.81648 | 40062 ft | 454 kts | 268° |
| 2026-05-06 15:00 | 35.87665 | 131.73878 | 40062 ft | 453 kts | 268° |
| 2026-05-06 15:00 | 35.87293 | 131.66147 | 40061 ft | 450 kts | 268° |
| 2026-05-06 15:01 | 35.86918 | 131.58449 | 40059 ft | 450 kts | 268° |
| 2026-05-06 15:01 | 35.86538 | 131.50745 | 40054 ft | 451 kts | 268° |
| 2026-05-06 15:02 | 35.86152 | 131.43036 | 40053 ft | 450 kts | 268° |
| 2026-05-06 15:02 | 35.85762 | 131.35338 | 40054 ft | 450 kts | 268° |
| 2026-05-06 15:03 | 35.85368 | 131.27653 | 40056 ft | 448 kts | 268° |
| 2026-05-06 15:03 | 35.84970 | 131.19996 | 40054 ft | 447 kts | 268° |
| 2026-05-06 15:04 | 35.84567 | 131.12341 | 40056 ft | 448 kts | 268° |
| 2026-05-06 15:04 | 35.84160 | 131.04678 | 40053 ft | 448 kts | 268° |
| 2026-05-06 15:05 | 35.83747 | 130.97024 | 40051 ft | 448 kts | 268° |
| 2026-05-06 15:05 | 35.83330 | 130.89368 | 40054 ft | 447 kts | 268° |
| 2026-05-06 15:06 | 35.82909 | 130.81737 | 40050 ft | 446 kts | 267° |
| 2026-05-06 15:06 | 35.82548 | 130.74101 | 40046 ft | 446 kts | 271° |
| 2026-05-06 15:07 | 35.83128 | 130.66502 | 40054 ft | 446 kts | 278° |
| 2026-05-06 15:07 | 35.84058 | 130.58943 | 40050 ft | 446 kts | 279° |
| 2026-05-06 15:08 | 35.85033 | 130.51447 | 40045 ft | 446 kts | 279° |
| 2026-05-06 15:08 | 35.86002 | 130.43888 | 40048 ft | 446 kts | 279° |
| 2026-05-06 15:09 | 35.86951 | 130.36348 | 40044 ft | 445 kts | 279° |
| 2026-05-06 15:09 | 35.87891 | 130.28808 | 40042 ft | 445 kts | 279° |
| 2026-05-06 15:10 | 35.88824 | 130.21283 | 40042 ft | 444 kts | 278° |
| 2026-05-06 15:10 | 35.89751 | 130.13767 | 40040 ft | 443 kts | 278° |
| 2026-05-06 15:11 | 35.90674 | 130.06249 | 40043 ft | 444 kts | 278° |
| 2026-05-06 15:11 | 35.91595 | 129.98708 | 40041 ft | 444 kts | 278° |
| 2026-05-06 15:12 | 35.92506 | 129.91209 | 40035 ft | 442 kts | 278° |
| 2026-05-06 15:12 | 35.93411 | 129.83722 | 40031 ft | 441 kts | 278° |
| 2026-05-06 15:13 | 35.94317 | 129.76232 | 40033 ft | 439 kts | 278° |
| 2026-05-06 15:13 | 35.95201 | 129.68816 | 40031 ft | 436 kts | 278° |
| 2026-05-06 15:14 | 35.96078 | 129.61415 | 40029 ft | 435 kts | 278° |
| 2026-05-06 15:14 | 35.96957 | 129.54025 | 40035 ft | 435 kts | 279° |
| 2026-05-06 15:15 | 35.98637 | 129.46888 | 40033 ft | 434 kts | 292° |
| 2026-05-06 15:15 | 36.01725 | 129.40461 | 40035 ft | 437 kts | 302° |
| 2026-05-06 15:16 | 36.05244 | 129.34322 | 40044 ft | 438 kts | 303° |
| 2026-05-06 15:16 | 36.08803 | 129.28239 | 40037 ft | 436 kts | 302° |
| 2026-05-06 15:17 | 36.12334 | 129.22153 | 40038 ft | 435 kts | 302° |
| 2026-05-06 15:17 | 36.15821 | 129.16096 | 40042 ft | 435 kts | 302° |
| 2026-05-06 15:18 | 36.19321 | 129.09990 | 40049 ft | 435 kts | 302° |
| 2026-05-06 15:18 | 36.22820 | 129.03877 | 40046 ft | 434 kts | 302° |
| 2026-05-06 15:19 | 36.26311 | 128.97768 | 40045 ft | 434 kts | 302° |
| 2026-05-06 15:19 | 36.29799 | 128.91658 | 40036 ft | 434 kts | 302° |
| 2026-05-06 15:20 | 36.33287 | 128.85535 | 40034 ft | 434 kts | 301° |
| 2026-05-06 15:20 | 36.36771 | 128.79416 | 40033 ft | 434 kts | 301° |
| 2026-05-06 15:21 | 36.40247 | 128.73288 | 40030 ft | 434 kts | 301° |
| 2026-05-06 15:21 | 36.43722 | 128.67150 | 40031 ft | 434 kts | 301° |
| 2026-05-06 15:22 | 36.47193 | 128.61012 | 40027 ft | 434 kts | 301° |
| 2026-05-06 15:22 | 36.50662 | 128.54867 | 40030 ft | 434 kts | 301° |
| 2026-05-06 15:23 | 36.54130 | 128.48713 | 40043 ft | 434 kts | 301° |
| 2026-05-06 15:23 | 36.57583 | 128.42576 | 40030 ft | 434 kts | 301° |
| 2026-05-06 15:24 | 36.61043 | 128.36413 | 40026 ft | 434 kts | 301° |
| 2026-05-06 15:24 | 36.64499 | 128.30261 | 40025 ft | 434 kts | 301° |
| 2026-05-06 15:25 | 36.67992 | 128.24132 | 40031 ft | 434 kts | 301° |
| 2026-05-06 15:25 | 36.71067 | 128.18745 | 40033 ft | 434 kts | 301° |
| 2026-05-06 15:26 | 36.74568 | 128.12609 | 40025 ft | 434 kts | 301° |
| 2026-05-06 15:26 | 36.78052 | 128.06467 | 39978 ft | 434 kts | 301° |
| 2026-05-06 15:26 | 36.79787 | 128.03402 | 39629 ft | 429 kts | 301° |
| 2026-05-06 15:27 | 36.81498 | 128.00378 | 39148 ft | 425 kts | 301° |
| 2026-05-06 15:27 | 36.83201 | 127.97366 | 38428 ft | 426 kts | 300° |
| 2026-05-06 15:27 | 36.84906 | 127.94347 | 37703 ft | 425 kts | 300° |
| 2026-05-06 15:27 | 36.86612 | 127.91332 | 37021 ft | 424 kts | 300° |
| 2026-05-06 15:28 | 36.88306 | 127.88324 | 36332 ft | 423 kts | 300° |
| 2026-05-06 15:28 | 36.89998 | 127.85312 | 35633 ft | 424 kts | 300° |
| 2026-05-06 15:28 | 36.91692 | 127.82290 | 34868 ft | 426 kts | 300° |
| 2026-05-06 15:28 | 36.93394 | 127.79253 | 34047 ft | 429 kts | 301° |
| 2026-05-06 15:29 | 36.95118 | 127.76184 | 33122 ft | 433 kts | 301° |
| 2026-05-06 15:29 | 36.96855 | 127.73095 | 32229 ft | 435 kts | 301° |
| 2026-05-06 15:29 | 36.98600 | 127.69987 | 31317 ft | 439 kts | 300° |
| 2026-05-06 15:29 | 37.00354 | 127.66863 | 30657 ft | 437 kts | 300° |
| 2026-05-06 15:30 | 37.02095 | 127.63765 | 30047 ft | 434 kts | 300° |
| 2026-05-06 15:30 | 37.03826 | 127.60685 | 29332 ft | 431 kts | 300° |
| 2026-05-06 15:30 | 37.05528 | 127.57639 | 29001 ft | 420 kts | 300° |
| 2026-05-06 15:30 | 37.07174 | 127.54696 | 28868 ft | 406 kts | 300° |
| 2026-05-06 15:31 | 37.08769 | 127.51839 | 28730 ft | 393 kts | 300° |
| 2026-05-06 15:31 | 37.10306 | 127.49083 | 28591 ft | 380 kts | 300° |
| 2026-05-06 15:31 | 37.11790 | 127.46420 | 28479 ft | 367 kts | 299° |
| 2026-05-06 15:32 | 37.14631 | 127.41327 | 28173 ft | 345 kts | 298° |
| 2026-05-06 15:32 | 37.15981 | 127.38892 | 28004 ft | 335 kts | 298° |
| 2026-05-06 15:32 | 37.17297 | 127.36513 | 27627 ft | 332 kts | 298° |
| 2026-05-06 15:32 | 37.18609 | 127.34139 | 27177 ft | 330 kts | 298° |
| 2026-05-06 15:33 | 37.19916 | 127.31780 | 26772 ft | 328 kts | 298° |
| 2026-05-06 15:33 | 37.21216 | 127.29429 | 26369 ft | 326 kts | 298° |
| 2026-05-06 15:33 | 37.22505 | 127.27098 | 25968 ft | 325 kts | 298° |
| 2026-05-06 15:33 | 37.23769 | 127.24810 | 25566 ft | 323 kts | 298° |
| 2026-05-06 15:34 | 37.25049 | 127.22494 | 25171 ft | 322 kts | 298° |
| 2026-05-06 15:34 | 37.26321 | 127.20190 | 24765 ft | 321 kts | 298° |
| 2026-05-06 15:34 | 37.27591 | 127.17891 | 24361 ft | 320 kts | 297° |
| 2026-05-06 15:34 | 37.28854 | 127.15601 | 23961 ft | 318 kts | 297° |
| 2026-05-06 15:35 | 37.30113 | 127.13316 | 23544 ft | 318 kts | 297° |
| 2026-05-06 15:35 | 37.31369 | 127.11036 | 23101 ft | 316 kts | 297° |
| 2026-05-06 15:35 | 37.32613 | 127.08780 | 22695 ft | 313 kts | 298° |
| 2026-05-06 15:35 | 37.33844 | 127.06545 | 22303 ft | 310 kts | 298° |
| 2026-05-06 15:36 | 37.35062 | 127.04332 | 21899 ft | 306 kts | 298° |
| 2026-05-06 15:36 | 37.36267 | 127.02142 | 21517 ft | 303 kts | 298° |
| 2026-05-06 15:36 | 37.37460 | 126.99969 | 21140 ft | 301 kts | 298° |
| 2026-05-06 15:36 | 37.38642 | 126.97814 | 20761 ft | 298 kts | 298° |
| 2026-05-06 15:37 | 37.39754 | 126.95638 | 20380 ft | 293 kts | 292° |
| 2026-05-06 15:37 | 37.40435 | 126.93284 | 20022 ft | 282 kts | 277° |
| 2026-05-06 15:37 | 37.40511 | 126.90863 | 19661 ft | 276 kts | 261° |
| 2026-05-06 15:37 | 37.40040 | 126.88549 | 19326 ft | 274 kts | 250° |
| 2026-05-06 15:38 | 37.39342 | 126.86307 | 18970 ft | 275 kts | 249° |
| 2026-05-06 15:38 | 37.38621 | 126.84079 | 18621 ft | 275 kts | 249° |
| 2026-05-06 15:38 | 37.37907 | 126.81857 | 18253 ft | 275 kts | 249° |
| 2026-05-06 15:38 | 37.37195 | 126.79630 | 17860 ft | 274 kts | 249° |
| 2026-05-06 15:39 | 37.36487 | 126.77408 | 17503 ft | 273 kts | 249° |
| 2026-05-06 15:39 | 37.35783 | 126.75191 | 17167 ft | 273 kts | 249° |
| 2026-05-06 15:39 | 37.35079 | 126.72973 | 16814 ft | 273 kts | 249° |
| 2026-05-06 15:39 | 37.34376 | 126.70761 | 16462 ft | 272 kts | 249° |
| 2026-05-06 15:40 | 37.33676 | 126.68558 | 16112 ft | 271 kts | 249° |
| 2026-05-06 15:40 | 37.32977 | 126.66360 | 15748 ft | 270 kts | 249° |
| 2026-05-06 15:40 | 37.32279 | 126.64169 | 15413 ft | 270 kts | 249° |
| 2026-05-06 15:40 | 37.31584 | 126.61983 | 15065 ft | 269 kts | 249° |
| 2026-05-06 15:41 | 37.30897 | 126.59828 | 14708 ft | 269 kts | 249° |
| 2026-05-06 15:41 | 37.30429 | 126.58361 | 14483 ft | 269 kts | 249° |
| 2026-05-06 15:41 | 37.29510 | 126.55481 | 14006 ft | 268 kts | 249° |
| 2026-05-06 15:41 | 37.28816 | 126.53308 | 13636 ft | 267 kts | 249° |
| 2026-05-06 15:42 | 37.28126 | 126.51149 | 13287 ft | 266 kts | 249° |
| 2026-05-06 15:42 | 37.27661 | 126.49697 | 13062 ft | 266 kts | 249° |
| 2026-05-06 15:42 | 37.26751 | 126.46851 | 12589 ft | 264 kts | 249° |
| 2026-05-06 15:42 | 37.26068 | 126.44716 | 12266 ft | 263 kts | 249° |
| 2026-05-06 15:43 | 37.25611 | 126.43286 | 12036 ft | 262 kts | 249° |
| 2026-05-06 15:43 | 37.24712 | 126.40485 | 11576 ft | 260 kts | 249° |
| 2026-05-06 15:43 | 37.24261 | 126.39063 | 11353 ft | 259 kts | 250° |
| 2026-05-06 15:43 | 37.23842 | 126.36908 | 11010 ft | 258 kts | 265° |
| 2026-05-06 15:44 | 37.24052 | 126.34657 | 10657 ft | 259 kts | 287° |
| 2026-05-06 15:44 | 37.24942 | 126.32698 | 10315 ft | 262 kts | 308° |
| 2026-05-06 15:44 | 37.26333 | 126.31204 | 9959 ft | 265 kts | 321° |
| 2026-05-06 15:44 | 37.27881 | 126.29866 | 9589 ft | 278 kts | 322° |
| 2026-05-06 15:45 | 37.29478 | 126.28503 | 9464 ft | 282 kts | 322° |
| 2026-05-06 15:45 | 37.31110 | 126.27101 | 9005 ft | 281 kts | 322° |
| 2026-05-06 15:45 | 37.32705 | 126.25718 | 8466 ft | 283 kts | 322° |
| 2026-05-06 15:45 | 37.34316 | 126.24316 | 8039 ft | 280 kts | 322° |
| 2026-05-06 15:46 | 37.35904 | 126.22930 | 7669 ft | 277 kts | 322° |
| 2026-05-06 15:46 | 37.37480 | 126.21552 | 7298 ft | 275 kts | 321° |
| 2026-05-06 15:46 | 37.39046 | 126.20180 | 6929 ft | 273 kts | 321° |
| 2026-05-06 15:46 | 37.40602 | 126.18816 | 6556 ft | 272 kts | 321° |
| 2026-05-06 15:47 | 37.42150 | 126.17457 | 6176 ft | 271 kts | 321° |
| 2026-05-06 15:47 | 37.43696 | 126.16099 | 5870 ft | 268 kts | 321° |
| 2026-05-06 15:47 | 37.45190 | 126.14791 | 5705 ft | 256 kts | 321° |
| 2026-05-06 15:47 | 37.46614 | 126.13544 | 5567 ft | 244 kts | 320° |
| 2026-05-06 15:48 | 37.47977 | 126.12348 | 5420 ft | 234 kts | 320° |
| 2026-05-06 15:48 | 37.49352 | 126.11308 | 5280 ft | 232 kts | 333° |
| 2026-05-06 15:48 | 37.50966 | 126.11039 | 5097 ft | 242 kts | 6° |
| 2026-05-06 15:48 | 37.52464 | 126.11976 | 4855 ft | 247 kts | 43° |
| 2026-05-06 15:49 | 37.53551 | 126.13655 | 4581 ft | 248 kts | 55° |
| 2026-05-06 15:49 | 37.54532 | 126.15443 | 4356 ft | 247 kts | 56° |
| 2026-05-06 15:49 | 37.55507 | 126.17219 | 4143 ft | 247 kts | 56° |
| 2026-05-06 15:49 | 37.56498 | 126.18998 | 3896 ft | 248 kts | 56° |
| 2026-05-06 15:50 | 37.57492 | 126.20777 | 3663 ft | 249 kts | 56° |
| 2026-05-06 15:50 | 37.58494 | 126.22561 | 3431 ft | 250 kts | 56° |
| 2026-05-06 15:50 | 37.59505 | 126.24345 | 3209 ft | 249 kts | 56° |
| 2026-05-06 15:50 | 37.60393 | 126.26198 | 2968 ft | 245 kts | 72° |
| 2026-05-06 15:51 | 37.60505 | 126.28264 | 2769 ft | 233 kts | 111° |
| 2026-05-06 15:51 | 37.59694 | 126.29909 | 2564 ft | 216 kts | 145° |
| 2026-05-06 15:51 | 37.58542 | 126.31026 | 2471 ft | 202 kts | 152° |
| 2026-05-06 15:51 | 37.57437 | 126.31997 | 2388 ft | 184 kts | 153° |
| 2026-05-06 15:52 | 37.56464 | 126.32867 | 2322 ft | 162 kts | 153° |
| 2026-05-06 15:52 | 37.55583 | 126.33653 | 2159 ft | 149 kts | 155° |
| 2026-05-06 15:52 | 37.54769 | 126.34368 | 2001 ft | 136 kts | 156° |
| 2026-05-06 15:52 | 37.54027 | 126.35018 | 1968 ft | 127 kts | 157° |
| 2026-05-06 15:53 | 37.53302 | 126.35641 | 1973 ft | 128 kts | 157° |
| 2026-05-06 15:53 | 37.52564 | 126.36296 | 1972 ft | 130 kts | 156° |
| 2026-05-06 15:53 | 37.51821 | 126.36950 | 1954 ft | 130 kts | 156° |
| 2026-05-06 15:53 | 37.51080 | 126.37605 | 1886 ft | 130 kts | 156° |
| 2026-05-06 15:54 | 37.50291 | 126.38284 | 1132 ft | 161 kts | 155° |
| 2026-05-06 15:54 | 37.49315 | 126.39071 | 661 ft | 162 kts | 145° |
| 2026-05-06 15:54 | 37.48451 | 126.39875 | 443 ft | 149 kts | 143° |
| 2026-05-06 15:54 | 37.47656 | 126.40648 | 220 ft | 139 kts | 143° |
| 2026-05-06 15:55 | 37.46912 | 126.41328 | 90 ft | 127 kts | 146° |
| 2026-05-06 15:55 | 37.46221 | 126.41927 | 38 ft | 105 kts | 144° |
| 2026-05-06 15:55 | 37.45837 | 126.42268 | 39 ft | 45 kts | 145° |
| 2026-05-06 15:55 | 37.45624 | 126.42480 | 39 ft | 35 kts | 135° |
| 2026-05-06 15:56 | 37.45550 | 126.42702 | 38 ft | 20 kts | 53° |
| 2026-05-06 15:56 | 37.45637 | 126.42804 | 39 ft | 16 kts | 51° |
| 2026-05-06 15:56 | 37.45695 | 126.42911 | 39 ft | 14 kts | 56° |
| 2026-05-06 15:56 | 37.45747 | 126.43009 | 39 ft | 13 kts | 56° |
| 2026-05-06 15:57 | 37.45799 | 126.43091 | 39 ft | 10 kts | 39° |
| 2026-05-06 15:57 | 37.45851 | 126.43112 | 39 ft | 7 kts | 13° |
| 2026-05-06 15:57 | 37.45890 | 126.43139 | 39 ft | 6 kts | 36° |
| 2026-05-06 15:57 | 37.45905 | 126.43161 | 39 ft | 1 kts | 56° |
| 2026-05-06 15:58 | 37.45914 | 126.43180 | 39 ft | 9 kts | 56° |
| 2026-05-06 15:58 | 37.45954 | 126.43253 | 39 ft | 10 kts | 54° |
| 2026-05-06 15:58 | 37.45990 | 126.43317 | 39 ft | 8 kts | 55° |
| 2026-05-06 15:58 | 37.46013 | 126.43348 | 39 ft | 0 kts | 18° |
| 2026-05-06 15:59 | 37.46055 | 126.43357 | 39 ft | 14 kts | 6° |
| 2026-05-06 15:59 | 37.46098 | 126.43356 | 39 ft | 3 kts | 349° |
| 2026-05-06 15:59 | 37.46113 | 126.43354 | 39 ft | 1 kts | 357° |
| 2026-05-06 15:59 | 37.46114 | 126.43354 | 39 ft | 0 kts | 357° |
| 2026-05-06 16:00 | 37.46118 | 126.43350 | 39 ft | 2 kts | 338° |
| 2026-05-06 16:00 | 37.46149 | 126.43336 | 39 ft | 0 kts | 18° |